sensor_id;sensor_type;location;lat;lon;timestamp;pressure;altitude;pressure_sealevel;temperature;humidity
78843;BME280;70542;53.774;-0.352;2024-01-16T00:05:17;101150;;;-1;44
78843;BME280;70542;53.774;-0.352;2024-01-16T00:10:56;101140;;;-1;45
78843;BME280;70542;53.774;-0.352;2024-01-16T00:16:42;101130;;;-1;44
78843;BME280;70542;53.774;-0.352;2024-01-16T00:22:21;101130;;;-1;44
78843;BME280;70542;53.774;-0.352;2024-01-16T00:28:10;101120;;;-1;45
78843;BME280;70542;53.774;-0.352;2024-01-16T00:33:49;101120;;;-1;45
78843;BME280;70542;53.774;-0.352;2024-01-16T00:39:28;101110;;;-1;45
78843;BME280;70542;53.774;-0.352;2024-01-16T00:45:17;101110;;;-2;46
78843;BME280;70542;53.774;-0.352;2024-01-16T00:50:56;101110;;;-1;46
78843;BME280;70542;53.774;-0.352;2024-01-16T00:56:35;101100;;;0;44
78843;BME280;70542;53.774;-0.352;2024-01-16T01:02:19;101100;;;-2;46
78843;BME280;70542;53.774;-0.352;2024-01-16T01:08:03;101100;;;-1;43
78843;BME280;70542;53.774;-0.352;2024-01-16T01:13:48;101090;;;0;41
78843;BME280;70542;53.774;-0.352;2024-01-16T01:19:27;101080;;;0;41
78843;BME280;70542;53.774;-0.352;2024-01-16T01:25:08;101080;;;0;40
78843;BME280;70542;53.774;-0.352;2024-01-16T01:30:51;101070;;;1;37
78843;BME280;70542;53.774;-0.352;2024-01-16T01:36:30;101070;;;0;38
78843;BME280;70542;53.774;-0.352;2024-01-16T01:42:09;101070;;;0;42
78843;BME280;70542;53.774;-0.352;2024-01-16T01:47:48;101070;;;-1;43
78843;BME280;70542;53.774;-0.352;2024-01-16T01:53:27;101060;;;0;41
78843;BME280;70542;53.774;-0.352;2024-01-16T01:59:07;101050;;;0;41
78843;BME280;70542;53.774;-0.352;2024-01-16T02:04:51;101050;;;0;40
78843;BME280;70542;53.774;-0.352;2024-01-16T02:10:31;101050;;;0;39
78843;BME280;70542;53.774;-0.352;2024-01-16T02:16:18;101040;;;0;39
78843;BME280;70542;53.774;-0.352;2024-01-16T02:22:00;101030;;;0;40
78843;BME280;70542;53.774;-0.352;2024-01-16T02:27:52;101030;;;0;41
78843;BME280;70542;53.774;-0.352;2024-01-16T02:33:41;101020;;;0;42
78843;BME280;70542;53.774;-0.352;2024-01-16T02:39:26;101020;;;0;41
78843;BME280;70542;53.774;-0.352;2024-01-16T02:45:10;101020;;;0;41
78843;BME280;70542;53.774;-0.352;2024-01-16T02:50:54;101020;;;0;41
78843;BME280;70542;53.774;-0.352;2024-01-16T02:56:38;101020;;;0;40
78843;BME280;70542;53.774;-0.352;2024-01-16T03:02:18;101010;;;1;38
78843;BME280;70542;53.774;-0.352;2024-01-16T03:07:57;101000;;;1;38
78843;BME280;70542;53.774;-0.352;2024-01-16T03:13:41;100990;;;2;36
78843;BME280;70542;53.774;-0.352;2024-01-16T03:19:20;100980;;;1;38
78843;BME280;70542;53.774;-0.352;2024-01-16T03:24:59;100980;;;0;40
78843;BME280;70542;53.774;-0.352;2024-01-16T03:30:42;100980;;;0;40
78843;BME280;70542;53.774;-0.352;2024-01-16T03:36:22;100980;;;0;42
78843;BME280;70542;53.774;-0.352;2024-01-16T03:42:00;100980;;;0;40
78843;BME280;70542;53.774;-0.352;2024-01-16T03:47:44;100970;;;1;39
78843;BME280;70542;53.774;-0.352;2024-01-16T03:53:24;100960;;;1;40
78843;BME280;70542;53.774;-0.352;2024-01-16T03:59:03;100960;;;1;40
78843;BME280;70542;53.774;-0.352;2024-01-16T04:04:43;100950;;;1;40
78843;BME280;70542;53.774;-0.352;2024-01-16T04:10:23;100940;;;2;39
78843;BME280;70542;53.774;-0.352;2024-01-16T04:16:03;100940;;;3;35
78843;BME280;70542;53.774;-0.352;2024-01-16T04:21:50;100930;;;4;34
78843;BME280;70542;53.774;-0.352;2024-01-16T04:27:29;100930;;;3;37
78843;BME280;70542;53.774;-0.352;2024-01-16T04:33:08;100930;;;3;35
78843;BME280;70542;53.774;-0.352;2024-01-16T04:38:48;100920;;;4;34
78843;BME280;70542;53.774;-0.352;2024-01-16T04:44:27;100920;;;3;35
78843;BME280;70542;53.774;-0.352;2024-01-16T04:50:06;100920;;;2;37
78843;BME280;70542;53.774;-0.352;2024-01-16T04:55:45;100900;;;3;35
78843;BME280;70542;53.774;-0.352;2024-01-16T05:01:24;100900;;;3;35
78843;BME280;70542;53.774;-0.352;2024-01-16T05:07:08;100900;;;1;38
78843;BME280;70542;53.774;-0.352;2024-01-16T05:12:51;100890;;;1;37
78843;BME280;70542;53.774;-0.352;2024-01-16T05:18:30;100880;;;2;36
78843;BME280;70542;53.774;-0.352;2024-01-16T05:24:09;100880;;;2;36
78843;BME280;70542;53.774;-0.352;2024-01-16T05:29:48;100870;;;3;36
78843;BME280;70542;53.774;-0.352;2024-01-16T05:35:32;100860;;;3;36
78843;BME280;70542;53.774;-0.352;2024-01-16T05:41:11;100860;;;3;35
78843;BME280;70542;53.774;-0.352;2024-01-16T05:46:49;100860;;;3;35
78843;BME280;70542;53.774;-0.352;2024-01-16T05:52:28;100850;;;2;36
78843;BME280;70542;53.774;-0.352;2024-01-16T05:58:07;100840;;;3;34
78843;BME280;70542;53.774;-0.352;2024-01-16T06:03:46;100840;;;4;34
78843;BME280;70542;53.774;-0.352;2024-01-16T06:09:38;100830;;;4;35
78843;BME280;70542;53.774;-0.352;2024-01-16T06:15:22;100830;;;3;35
78843;BME280;70542;53.774;-0.352;2024-01-16T06:21:01;100810;;;3;35
78843;BME280;70542;53.774;-0.352;2024-01-16T06:26:45;100800;;;4;34
78843;BME280;70542;53.774;-0.352;2024-01-16T06:32:29;100800;;;3;37
78843;BME280;70542;53.774;-0.352;2024-01-16T06:38:13;100790;;;3;37
78843;BME280;70542;53.774;-0.352;2024-01-16T06:43:52;100800;;;3;36
78843;BME280;70542;53.774;-0.352;2024-01-16T06:49:31;100800;;;3;35
78843;BME280;70542;53.774;-0.352;2024-01-16T06:55:11;100790;;;3;37
78843;BME280;70542;53.774;-0.352;2024-01-16T07:00:49;100790;;;3;37
78843;BME280;70542;53.774;-0.352;2024-01-16T07:06:28;100780;;;2;37
78843;BME280;70542;53.774;-0.352;2024-01-16T07:12:17;100770;;;1;40
78843;BME280;70542;53.774;-0.352;2024-01-16T07:17:59;100770;;;1;39
78843;BME280;70542;53.774;-0.352;2024-01-16T07:23:43;100770;;;0;43
78843;BME280;70542;53.774;-0.352;2024-01-16T07:29:27;100760;;;1;40
78843;BME280;70542;53.774;-0.352;2024-01-16T07:35:06;100770;;;0;45
78843;BME280;70542;53.774;-0.352;2024-01-16T07:40:45;100770;;;0;45
78843;BME280;70542;53.774;-0.352;2024-01-16T07:46:31;100760;;;0;44
78843;BME280;70542;53.774;-0.352;2024-01-16T07:52:15;100750;;;0;43
78843;BME280;70542;53.774;-0.352;2024-01-16T07:57:55;100750;;;0;43
78843;BME280;70542;53.774;-0.352;2024-01-16T08:03:34;100740;;;1;43
78843;BME280;70542;53.774;-0.352;2024-01-16T08:09:13;100740;;;0;44
78843;BME280;70542;53.774;-0.352;2024-01-16T08:14:52;100740;;;1;42
78843;BME280;70542;53.774;-0.352;2024-01-16T08:20:31;100730;;;1;42
78843;BME280;70542;53.774;-0.352;2024-01-16T08:26:20;100730;;;1;44
78843;BME280;70542;53.774;-0.352;2024-01-16T08:31:58;100720;;;1;45
78843;BME280;70542;53.774;-0.352;2024-01-16T08:37:37;100720;;;1;44
78843;BME280;70542;53.774;-0.352;2024-01-16T08:43:16;100710;;;3;42
78843;BME280;70542;53.774;-0.352;2024-01-16T08:48:54;100720;;;2;43
78843;BME280;70542;53.774;-0.352;2024-01-16T08:54:39;100710;;;2;44
78843;BME280;70542;53.774;-0.352;2024-01-16T09:00:29;100710;;;1;45
78843;BME280;70542;53.774;-0.352;2024-01-16T09:06:09;100700;;;2;43
78843;BME280;70542;53.774;-0.352;2024-01-16T09:11:58;100700;;;3;43
78843;BME280;70542;53.774;-0.352;2024-01-16T09:17:41;100700;;;3;43
78843;BME280;70542;53.774;-0.352;2024-01-16T09:23:21;100680;;;4;41
78843;BME280;70542;53.774;-0.352;2024-01-16T09:29:04;100680;;;4;41
78843;BME280;70542;53.774;-0.352;2024-01-16T09:34:43;100670;;;5;41
78843;BME280;70542;53.774;-0.352;2024-01-16T09:40:27;100670;;;5;40
78843;BME280;70542;53.774;-0.352;2024-01-16T09:46:07;100660;;;4;41
78843;BME280;70542;53.774;-0.352;2024-01-16T09:51:47;100660;;;4;42
78843;BME280;70542;53.774;-0.352;2024-01-16T09:57:26;100660;;;4;42
78843;BME280;70542;53.774;-0.352;2024-01-16T10:03:05;100650;;;5;42
78843;BME280;70542;53.774;-0.352;2024-01-16T10:08:45;100630;;;5;41
78843;BME280;70542;53.774;-0.352;2024-01-16T10:14:24;100630;;;3;42
78843;BME280;70542;53.774;-0.352;2024-01-16T10:20:04;100620;;;5;40
78843;BME280;70542;53.774;-0.352;2024-01-16T10:25:43;100620;;;5;39
78843;BME280;70542;53.774;-0.352;2024-01-16T10:31:29;100620;;;5;39
78843;BME280;70542;53.774;-0.352;2024-01-16T10:37:09;100610;;;5;40
78843;BME280;70542;53.774;-0.352;2024-01-16T10:42:58;100610;;;5;40
78843;BME280;70542;53.774;-0.352;2024-01-16T10:48:38;100600;;;6;38
78843;BME280;70542;53.774;-0.352;2024-01-16T10:54:18;100590;;;6;39
78843;BME280;70542;53.774;-0.352;2024-01-16T11:00:01;100580;;;5;42
78843;BME280;70542;53.774;-0.352;2024-01-16T11:05:41;100560;;;5;44
78843;BME280;70542;53.774;-0.352;2024-01-16T11:11:20;100560;;;3;44
78843;BME280;70542;53.774;-0.352;2024-01-16T11:17:00;100550;;;4;43
78843;BME280;70542;53.774;-0.352;2024-01-16T11:22:43;100540;;;3;45
78843;BME280;70542;53.774;-0.352;2024-01-16T11:28:27;100530;;;3;47
78843;BME280;70542;53.774;-0.352;2024-01-16T11:40:20;100510;;;3;47
78843;BME280;70542;53.774;-0.352;2024-01-16T11:46:10;100510;;;4;45
78843;BME280;70542;53.774;-0.352;2024-01-16T11:51:54;100500;;;4;44
78843;BME280;70542;53.774;-0.352;2024-01-16T11:57:47;100500;;;3;45
78843;BME280;70542;53.774;-0.352;2024-01-16T12:03:29;100500;;;3;46
78843;BME280;70542;53.774;-0.352;2024-01-16T12:09:12;100490;;;4;44
78843;BME280;70542;53.774;-0.352;2024-01-16T12:14:56;100470;;;4;44
78843;BME280;70542;53.774;-0.352;2024-01-16T12:20:36;100460;;;4;46
78843;BME280;70542;53.774;-0.352;2024-01-16T12:26:20;100440;;;4;44
78843;BME280;70542;53.774;-0.352;2024-01-16T12:32:06;100420;;;5;44
78843;BME280;70542;53.774;-0.352;2024-01-16T12:37:59;100400;;;5;43
78843;BME280;70542;53.774;-0.352;2024-01-16T12:43:38;100390;;;4;46
78843;BME280;70542;53.774;-0.352;2024-01-16T12:49:17;100380;;;5;45
78843;BME280;70542;53.774;-0.352;2024-01-16T12:54:59;100360;;;5;45
78843;BME280;70542;53.774;-0.352;2024-01-16T13:00:38;100350;;;4;45
78843;BME280;70542;53.774;-0.352;2024-01-16T13:06:23;100320;;;6;41
78843;BME280;70542;53.774;-0.352;2024-01-16T13:12:03;100310;;;5;43
78843;BME280;70542;53.774;-0.352;2024-01-16T13:17:48;100300;;;5;43
78843;BME280;70542;53.774;-0.352;2024-01-16T13:23:28;100290;;;5;43
78843;BME280;70542;53.774;-0.352;2024-01-16T13:29:12;100280;;;6;41
78843;BME280;70542;53.774;-0.352;2024-01-16T13:34:57;100260;;;6;41
78843;BME280;70542;53.774;-0.352;2024-01-16T13:40:41;100240;;;7;40
78843;BME280;70542;53.774;-0.352;2024-01-16T13:46:20;100240;;;7;39
78843;BME280;70542;53.774;-0.352;2024-01-16T13:52:09;100230;;;7;38
78843;BME280;70542;53.774;-0.352;2024-01-16T13:58:03;100220;;;8;38
78843;BME280;70542;53.774;-0.352;2024-01-16T14:03:48;100190;;;8;37
78843;BME280;70542;53.774;-0.352;2024-01-16T14:09:27;100190;;;7;38
78843;BME280;70542;53.774;-0.352;2024-01-16T14:15:08;100180;;;6;39
78843;BME280;70542;53.774;-0.352;2024-01-16T14:20:53;100160;;;7;40
78843;BME280;70542;53.774;-0.352;2024-01-16T14:26:44;100150;;;7;39
78843;BME280;70542;53.774;-0.352;2024-01-16T14:32:23;100140;;;7;39
78843;BME280;70542;53.774;-0.352;2024-01-16T14:38:12;100140;;;7;40
78843;BME280;70542;53.774;-0.352;2024-01-16T14:43:51;100130;;;7;40
78843;BME280;70542;53.774;-0.352;2024-01-16T14:49:29;100110;;;6;41
78843;BME280;70542;53.774;-0.352;2024-01-16T14:55:08;100100;;;7;40
78843;BME280;70542;53.774;-0.352;2024-01-16T15:00:48;100090;;;7;40
78843;BME280;70542;53.774;-0.352;2024-01-16T15:06:28;100090;;;7;40
78843;BME280;70542;53.774;-0.352;2024-01-16T15:12:07;100080;;;7;40
78843;BME280;70542;53.774;-0.352;2024-01-16T15:17:46;100080;;;7;41
78843;BME280;70542;53.774;-0.352;2024-01-16T15:23:30;100070;;;6;43
78843;BME280;70542;53.774;-0.352;2024-01-16T15:29:14;100060;;;6;41
78843;BME280;70542;53.774;-0.352;2024-01-16T15:34:52;100040;;;7;41
78843;BME280;70542;53.774;-0.352;2024-01-16T15:40:31;100040;;;6;43
78843;BME280;70542;53.774;-0.352;2024-01-16T15:46:11;100030;;;6;42
78843;BME280;70542;53.774;-0.352;2024-01-16T15:51:54;100020;;;6;42
78843;BME280;70542;53.774;-0.352;2024-01-16T15:57:33;100010;;;6;41
78843;BME280;70542;53.774;-0.352;2024-01-16T16:03:12;100000;;;6;42
78843;BME280;70542;53.774;-0.352;2024-01-16T16:08:51;100000;;;7;40
78843;BME280;70542;53.774;-0.352;2024-01-16T16:14:29;100000;;;7;40
78843;BME280;70542;53.774;-0.352;2024-01-16T16:20:10;99990;;;7;40
78843;BME280;70542;53.774;-0.352;2024-01-16T16:25:51;99990;;;8;38
78843;BME280;70542;53.774;-0.352;2024-01-16T16:31:31;99980;;;7;38
78843;BME280;70542;53.774;-0.352;2024-01-16T16:37:11;99980;;;6;40
78843;BME280;70542;53.774;-0.352;2024-01-16T16:42:50;99970;;;7;39
78843;BME280;70542;53.774;-0.352;2024-01-16T16:48:30;99960;;;6;39
78843;BME280;70542;53.774;-0.352;2024-01-16T16:54:09;99940;;;7;39
78843;BME280;70542;53.774;-0.352;2024-01-16T16:59:49;99930;;;6;41
78843;BME280;70542;53.774;-0.352;2024-01-16T17:05:28;99920;;;6;41
78843;BME280;70542;53.774;-0.352;2024-01-16T17:11:07;99910;;;6;40
78843;BME280;70542;53.774;-0.352;2024-01-16T17:16:46;99900;;;6;40
78843;BME280;70542;53.774;-0.352;2024-01-16T17:22:31;99900;;;5;42
78843;BME280;70542;53.774;-0.352;2024-01-16T17:28:10;99890;;;5;43
78843;BME280;70542;53.774;-0.352;2024-01-16T17:33:48;99890;;;5;41
78843;BME280;70542;53.774;-0.352;2024-01-16T17:39:27;99880;;;5;43
78843;BME280;70542;53.774;-0.352;2024-01-16T17:45:09;99880;;;5;42
78843;BME280;70542;53.774;-0.352;2024-01-16T17:50:51;99870;;;5;42
78843;BME280;70542;53.774;-0.352;2024-01-16T17:56:30;99860;;;5;42
78843;BME280;70542;53.774;-0.352;2024-01-16T18:02:09;99850;;;4;44
78843;BME280;70542;53.774;-0.352;2024-01-16T18:07:48;99850;;;3;47
78843;BME280;70542;53.774;-0.352;2024-01-16T18:13:26;99840;;;4;46
78843;BME280;70542;53.774;-0.352;2024-01-16T18:19:05;99830;;;5;43
78843;BME280;70542;53.774;-0.352;2024-01-16T18:24:44;99830;;;4;44
78843;BME280;70542;53.774;-0.352;2024-01-16T18:30:28;99820;;;4;44
78843;BME280;70542;53.774;-0.352;2024-01-16T18:36:07;99810;;;4;44
78843;BME280;70542;53.774;-0.352;2024-01-16T18:41:51;99800;;;5;43
78843;BME280;70542;53.774;-0.352;2024-01-16T18:47:30;99790;;;4;44
78843;BME280;70542;53.774;-0.352;2024-01-16T18:53:14;99790;;;4;44
78843;BME280;70542;53.774;-0.352;2024-01-16T18:58:53;99780;;;5;42
78843;BME280;70542;53.774;-0.352;2024-01-16T19:04:32;99770;;;4;43
78843;BME280;70542;53.774;-0.352;2024-01-16T19:10:22;99760;;;5;42
78843;BME280;70542;53.774;-0.352;2024-01-16T19:16:43;99760;;;4;43
78843;BME280;70542;53.774;-0.352;2024-01-16T19:22:49;99750;;;5;43
78843;BME280;70542;53.774;-0.352;2024-01-16T19:28:30;99750;;;4;44
78843;BME280;70542;53.774;-0.352;2024-01-16T19:34:19;99760;;;4;43
78843;BME280;70542;53.774;-0.352;2024-01-16T19:39:58;99750;;;4;44
78843;BME280;70542;53.774;-0.352;2024-01-16T19:45:50;99750;;;4;44
78843;BME280;70542;53.774;-0.352;2024-01-16T19:51:30;99740;;;4;45
78843;BME280;70542;53.774;-0.352;2024-01-16T19:57:15;99730;;;3;45
78843;BME280;70542;53.774;-0.352;2024-01-16T20:03:05;99720;;;4;46
78843;BME280;70542;53.774;-0.352;2024-01-16T20:09:10;99720;;;3;46
78843;BME280;70542;53.774;-0.352;2024-01-16T20:14:49;99720;;;3;47
78843;BME280;70542;53.774;-0.352;2024-01-16T20:20:28;99700;;;3;47
78843;BME280;70542;53.774;-0.352;2024-01-16T20:26:12;99700;;;3;47
78843;BME280;70542;53.774;-0.352;2024-01-16T20:32:03;99700;;;2;51
78843;BME280;70542;53.774;-0.352;2024-01-16T20:37:49;99690;;;3;48
78843;BME280;70542;53.774;-0.352;2024-01-16T20:43:31;99690;;;3;47
78843;BME280;70542;53.774;-0.352;2024-01-16T20:49:11;99680;;;4;46
78843;BME280;70542;53.774;-0.352;2024-01-16T20:54:55;99670;;;4;45
78843;BME280;70542;53.774;-0.352;2024-01-16T21:00:35;99680;;;3;47
78843;BME280;70542;53.774;-0.352;2024-01-16T21:06:24;99670;;;3;48
78843;BME280;70542;53.774;-0.352;2024-01-16T21:12:13;99660;;;3;47
78843;BME280;70542;53.774;-0.352;2024-01-16T21:17:59;99670;;;3;47
78843;BME280;70542;53.774;-0.352;2024-01-16T21:23:45;99670;;;5;45
78843;BME280;70542;53.774;-0.352;2024-01-16T21:29:28;99660;;;5;44
78843;BME280;70542;53.774;-0.352;2024-01-16T21:35:09;99660;;;4;45
78843;BME280;70542;53.774;-0.352;2024-01-16T21:40:55;99660;;;5;44
78843;BME280;70542;53.774;-0.352;2024-01-16T21:46:34;99650;;;5;43
78843;BME280;70542;53.774;-0.352;2024-01-16T21:52:13;99650;;;4;45
78843;BME280;70542;53.774;-0.352;2024-01-16T21:58:03;99640;;;6;42
78843;BME280;70542;53.774;-0.352;2024-01-16T22:03:42;99640;;;6;42
78843;BME280;70542;53.774;-0.352;2024-01-16T22:09:21;99640;;;5;42
78843;BME280;70542;53.774;-0.352;2024-01-16T22:15:00;99630;;;6;41
78843;BME280;70542;53.774;-0.352;2024-01-16T22:20:44;99620;;;6;40
78843;BME280;70542;53.774;-0.352;2024-01-16T22:26:23;99620;;;5;43
78843;BME280;70542;53.774;-0.352;2024-01-16T22:32:03;99610;;;5;44
78843;BME280;70542;53.774;-0.352;2024-01-16T22:37:42;99600;;;2;49
78843;BME280;70542;53.774;-0.352;2024-01-16T22:43:21;99600;;;2;50
78843;BME280;70542;53.774;-0.352;2024-01-16T22:49:00;99600;;;2;52
78843;BME280;70542;53.774;-0.352;2024-01-16T22:54:39;99590;;;2;54
78843;BME280;70542;53.774;-0.352;2024-01-16T23:00:18;99580;;;1;56
78843;BME280;70542;53.774;-0.352;2024-01-16T23:06:02;99570;;;1;55
78843;BME280;70542;53.774;-0.352;2024-01-16T23:11:41;99570;;;1;56
78843;BME280;70542;53.774;-0.352;2024-01-16T23:17:20;99570;;;1;55
78843;BME280;70542;53.774;-0.352;2024-01-16T23:22:59;99580;;;2;54
78843;BME280;70542;53.774;-0.352;2024-01-16T23:28:44;99560;;;2;53
78843;BME280;70542;53.774;-0.352;2024-01-16T23:34:23;99570;;;2;53
78843;BME280;70542;53.774;-0.352;2024-01-16T23:40:03;99570;;;3;52
78843;BME280;70542;53.774;-0.352;2024-01-16T23:45:42;99560;;;2;52
78843;BME280;70542;53.774;-0.352;2024-01-16T23:51:35;99560;;;1;53
78843;BME280;70542;53.774;-0.352;2024-01-16T23:57:20;99570;;;1;53
